Time;durP1;ratioP1;P1;durP2;ratioP2;P2;SDS_P1;SDS_P2;PMS_P1;PMS_P2;Temp;Humidity;BMP_temperature;BMP_pressure;BME280_temperature;BME280_humidity;BME280_pressure;Samples;Min_cycle;Max_cycle;Signal;HPM_P1;HPM_P2
2023/03/23 00:00:08;;;;;;;0.82;0.82;;;10.30;97.30;;;;;;6126528;23;20145;-68
2023/03/23 00:02:35;;;;;;;0.95;0.65;;;10.40;97.40;;;;;;6126154;23;20179;-69
2023/03/23 00:05:07;;;;;;;0.40;0.40;;;10.30;97.30;;;;;;6126191;23;20152;-69
2023/03/23 00:07:33;;;;;;;0.40;0.40;;;10.40;97.50;;;;;;6126419;23;20176;-68
2023/03/23 00:10:02;;;;;;;0.75;0.75;;;10.40;97.30;;;;;;6126489;23;20515;-69
2023/03/23 00:12:33;;;;;;;2.35;1.85;;;10.40;97.40;;;;;;6126128;23;20168;-69
2023/03/23 00:15:00;;;;;;;0.60;0.60;;;10.40;97.70;;;;;;6126417;23;20129;-67
2023/03/23 00:17:26;;;;;;;0.63;0.63;;;10.40;97.50;;;;;;6126339;23;20167;-68
2023/03/23 00:19:52;;;;;;;0.40;0.40;;;10.40;97.30;;;;;;6100379;23;20199;-68
2023/03/23 00:22:21;;;;;;;0.30;0.30;;;10.40;97.20;;;;;;6126248;23;20168;-69
2023/03/23 00:24:50;;;;;;;0.45;0.45;;;10.40;97.30;;;;;;6126475;23;20156;-69
2023/03/23 00:27:16;;;;;;;0.85;0.75;;;10.30;97.30;;;;;;6126261;23;20183;-69
2023/03/23 00:29:42;;;;;;;0.40;0.40;;;10.40;97.30;;;;;;6126373;23;20153;-69
2023/03/23 00:32:13;;;;;;;1.07;0.97;;;10.40;97.40;;;;;;6126120;23;20403;-69
2023/03/23 00:34:40;;;;;;;0.40;0.40;;;10.30;97.40;;;;;;6128346;23;20360;-68
2023/03/23 00:37:07;;;;;;;0.60;0.55;;;10.30;97.40;;;;;;6128236;23;20171;-69
2023/03/23 00:39:33;;;;;;;0.40;0.40;;;10.30;97.40;;;;;;6128352;23;20220;-69
2023/03/23 00:42:01;;;;;;;0.60;0.60;;;10.30;97.30;;;;;;6128066;23;20155;-68
2023/03/23 00:44:30;;;;;;;0.60;0.57;;;10.30;97.40;;;;;;6128440;23;20227;-68
2023/03/23 00:46:56;;;;;;;0.40;0.40;;;10.30;97.80;;;;;;6128339;23;20207;-68
2023/03/23 00:49:24;;;;;;;0.57;0.57;;;10.20;97.60;;;;;;6128248;23;20148;-67
2023/03/23 00:51:51;;;;;;;0.40;0.40;;;10.20;97.80;;;;;;6127937;23;20172;-68
2023/03/23 00:54:16;;;;;;;0.40;0.40;;;10.20;97.90;;;;;;6128520;23;20227;-68
2023/03/23 00:56:42;;;;;;;1.03;0.93;;;10.20;98.00;;;;;;6128070;23;20175;-68
2023/03/23 00:59:08;;;;;;;0.30;0.30;;;10.30;98.20;;;;;;6128030;23;20219;-68
2023/03/23 01:01:34;;;;;;;1.33;0.50;;;10.40;97.80;;;;;;6128709;23;20466;-68
2023/03/23 01:04:03;;;;;;;0.70;0.70;;;10.40;97.80;;;;;;6127924;23;20484;-68
2023/03/23 01:06:34;;;;;;;0.73;0.73;;;10.40;97.80;;;;;;6102214;23;20215;-68
2023/03/23 01:09:03;;;;;;;0.40;0.40;;;10.40;97.60;;;;;;6128007;23;20175;-68
2023/03/23 01:11:29;;;;;;;0.52;0.52;;;10.30;97.70;;;;;;6127880;23;20219;-68
2023/03/23 01:13:55;;;;;;;3.03;0.60;;;10.30;97.90;;;;;;6127781;23;20614;-69
2023/03/23 01:16:21;;;;;;;0.65;0.65;;;10.30;97.90;;;;;;6127987;23;20151;-68
2023/03/23 01:18:47;;;;;;;1.33;0.77;;;10.30;97.90;;;;;;6127726;23;20215;-69
2023/03/23 01:21:16;;;;;;;0.60;0.60;;;10.30;97.80;;;;;;6127914;23;20148;-68
2023/03/23 01:23:42;;;;;;;0.40;0.40;;;10.30;97.90;;;;;;6127743;23;20156;-68
2023/03/23 01:26:16;;;;;;;0.60;0.60;;;10.20;97.90;;;;;;6128154;23;20665;-69
2023/03/23 01:28:43;;;;;;;1.73;1.13;;;10.30;98.00;;;;;;6101908;23;20278;-68
2023/03/23 01:31:14;;;;;;;0.57;0.57;;;10.30;97.90;;;;;;6128239;23;20294;-68
2023/03/23 01:33:41;;;;;;;0.98;0.50;;;10.40;97.90;;;;;;6127829;23;20463;-69
2023/03/23 01:36:13;;;;;;;0.70;0.70;;;10.40;97.70;;;;;;6128474;23;20158;-68
2023/03/23 01:38:39;;;;;;;0.50;0.50;;;10.30;97.70;;;;;;6127790;23;20628;-68
2023/03/23 01:41:05;;;;;;;1.17;0.63;;;10.30;97.90;;;;;;6128077;23;20179;-68
2023/03/23 01:43:31;;;;;;;0.30;0.30;;;10.30;98.20;;;;;;6127386;23;20193;-68
2023/03/23 01:45:57;;;;;;;0.57;0.57;;;10.40;98.10;;;;;;6127656;23;20598;-69
2023/03/23 01:48:38;;;;;;;0.40;0.40;;;10.40;97.90;;;;;;6127656;23;20168;-69
2023/03/23 01:51:12;;;;;;;1.55;0.85;;;10.30;98.00;;;;;;6127489;23;20235;-69
2023/03/23 01:53:45;;;;;;;0.85;0.50;;;10.30;98.10;;;;;;6127515;23;20162;-69
2023/03/23 01:56:14;;;;;;;0.63;0.63;;;10.30;98.30;;;;;;6127670;23;20528;-68
2023/03/23 01:58:41;;;;;;;1.60;1.05;;;10.20;98.40;;;;;;6127593;23;20164;-68
2023/03/23 02:01:11;;;;;;;1.10;1.10;;;10.20;98.40;;;;;;6127522;23;20148;-69
2023/03/23 02:03:41;;;;;;;0.40;0.40;;;10.30;98.50;;;;;;6127389;23;20133;-68
2023/03/23 02:06:07;;;;;;;0.55;0.55;;;10.30;98.30;;;;;;6127287;23;20227;-69
2023/03/23 02:08:34;;;;;;;1.03;0.60;;;10.30;98.30;;;;;;6127608;23;20247;-68
2023/03/23 02:11:00;;;;;;;0.30;0.30;;;10.40;98.30;;;;;;6127446;23;20368;-67
2023/03/23 02:13:27;;;;;;;0.45;0.45;;;10.30;98.20;;;;;;6127170;23;20151;-67
2023/03/23 02:16:08;;;;;;;0.40;0.40;;;10.30;98.40;;;;;;6127989;23;20148;-69
2023/03/23 02:18:55;;;;;;;0.40;0.40;;;10.40;98.60;;;;;;6127341;23;20538;-68
2023/03/23 02:21:37;;;;;;;0.50;0.50;;;10.50;98.60;;;;;;6127210;23;20132;-68
2023/03/23 02:24:35;;;;;;;0.30;0.30;;;10.50;98.60;;;;;;6127351;23;20211;-68
2023/03/23 02:27:16;;;;;;;0.40;0.40;;;10.40;98.70;;;;;;6127343;23;20141;-69
2023/03/23 02:33:41;;;;;;;1.60;0.85;;;10.40;98.90;;;;;;6127236;23;20184;-69
2023/03/23 02:36:35;;;;;;;0.30;0.30;;;10.40;99.10;;;;;;6127135;23;20137;-68
2023/03/23 02:39:27;;;;;;;6.35;1.75;;;10.40;99.10;;;;;;6112953;23;20172;-69
2023/03/23 02:42:24;;;;;;;2.15;2.05;;;10.50;98.70;;;;;;6125768;23;20160;-67
2023/03/23 02:44:52;;;;;;;0.65;0.65;;;10.50;98.40;;;;;;6125659;23;20246;-68
2023/03/23 02:47:23;;;;;;;0.60;0.60;;;10.50;98.20;;;;;;6127054;23;20223;-68
2023/03/23 02:49:52;;;;;;;0.40;0.40;;;10.50;98.00;;;;;;6127101;23;20168;-69
2023/03/23 02:52:21;;;;;;;0.60;0.60;;;10.50;98.20;;;;;;6100796;23;20188;-68
2023/03/23 02:54:50;;;;;;;0.50;0.50;;;10.50;98.00;;;;;;6126980;23;20171;-68
2023/03/23 02:57:16;;;;;;;0.40;0.40;;;10.60;97.90;;;;;;6126616;23;20165;-68
2023/03/23 02:59:42;;;;;;;0.30;0.30;;;10.70;97.90;;;;;;6127048;23;20152;-68
2023/03/23 03:02:29;;;;;;;2.50;0.70;;;10.70;98.00;;;;;;6127029;23;20148;-69
2023/03/23 03:05:27;;;;;;;0.80;0.80;;;10.70;97.80;;;;;;6126719;23;20156;-69
2023/03/23 03:08:18;;;;;;;4.85;1.08;;;10.70;97.60;;;;;;6059546;23;20214;-69
2023/03/23 03:10:54;;;;;;;1.30;1.30;;;10.70;97.70;;;;;;6127103;23;20164;-68
2023/03/23 03:13:29;;;;;;;0.32;0.32;;;10.80;97.60;;;;;;6126669;23;20471;-68
2023/03/23 03:16:04;;;;;;;0.82;0.73;;;10.80;97.50;;;;;;6126835;23;20215;-68
2023/03/23 03:18:43;;;;;;;1.35;0.60;;;10.80;97.60;;;;;;6126785;23;20190;-69
2023/03/23 03:21:12;;;;;;;0.40;0.40;;;10.90;97.10;;;;;;6126658;23;20136;-69
2023/03/23 03:23:41;;;;;;;1.10;1.00;;;10.90;96.80;;;;;;6126402;23;20155;-69
2023/03/23 03:26:11;;;;;;;2.05;0.60;;;10.90;97.20;;;;;;6126758;23;20144;-67
2023/03/23 03:28:37;;;;;;;0.60;0.50;;;10.90;97.30;;;;;;6126593;23;20247;-68
2023/03/23 03:31:06;;;;;;;1.30;0.70;;;10.90;97.40;;;;;;6126639;23;20175;-68
2023/03/23 03:33:33;;;;;;;1.05;0.82;;;10.90;97.30;;;;;;6126507;23;20914;-68
2023/03/23 03:36:02;;;;;;;0.30;0.30;;;11.00;96.90;;;;;;6126674;23;20149;-69
2023/03/23 03:38:28;;;;;;;0.68;0.65;;;11.00;96.80;;;;;;6126694;23;20250;-69
2023/03/23 03:40:54;;;;;;;0.40;0.40;;;11.00;97.00;;;;;;6126632;23;20176;-69
2023/03/23 03:43:20;;;;;;;0.50;0.50;;;11.00;97.10;;;;;;6126446;23;20152;-69
2023/03/23 03:45:45;;;;;;;0.40;0.40;;;11.00;96.90;;;;;;6126617;23;20554;-68
2023/03/23 03:48:11;;;;;;;2.00;1.57;;;11.00;96.90;;;;;;6126507;23;20179;-68
2023/03/23 03:50:37;;;;;;;0.70;0.70;;;10.90;97.00;;;;;;6126718;23;20153;-69
2023/03/23 03:53:03;;;;;;;0.47;0.47;;;10.90;97.10;;;;;;6126225;23;20598;-68
2023/03/23 03:55:35;;;;;;;0.40;0.40;;;10.90;97.10;;;;;;6126572;23;20376;-68
2023/03/23 03:58:01;;;;;;;0.40;0.40;;;11.00;97.00;;;;;;6126475;23;20380;-68
2023/03/23 04:00:26;;;;;;;0.40;0.40;;;11.00;96.90;;;;;;6126465;23;20145;-67
2023/03/23 04:02:54;;;;;;;0.67;0.67;;;11.00;96.90;;;;;;6126243;23;20387;-68
2023/03/23 04:05:21;;;;;;;0.98;0.98;;;10.90;97.10;;;;;;6126420;23;20527;-68
2023/03/23 04:07:51;;;;;;;0.77;0.52;;;10.80;97.20;;;;;;6126245;23;20231;-68
2023/03/23 04:10:21;;;;;;;0.73;0.60;;;10.70;97.10;;;;;;6126805;23;20487;-67
2023/03/23 04:12:50;;;;;;;0.50;0.50;;;10.70;97.20;;;;;;6126346;23;20170;-68
2023/03/23 04:15:16;;;;;;;0.50;0.50;;;10.70;97.10;;;;;;6126268;23;20154;-68
2023/03/23 04:17:42;;;;;;;0.30;0.30;;;10.70;97.00;;;;;;6126289;23;20164;-68
2023/03/23 04:20:14;;;;;;;0.65;0.63;;;10.70;96.90;;;;;;6126195;23;20148;-68
2023/03/23 04:22:43;;;;;;;5.28;0.60;;;10.60;97.10;;;;;;6126071;23;20171;-69
2023/03/23 04:25:10;;;;;;;0.65;0.65;;;10.60;97.30;;;;;;6126270;23;20158;-68
2023/03/23 04:27:36;;;;;;;1.15;1.15;;;10.60;97.50;;;;;;6126479;23;20167;-68
2023/03/23 04:30:03;;;;;;;0.40;0.40;;;10.60;97.40;;;;;;6126531;23;20158;-69
2023/03/23 04:32:28;;;;;;;0.73;0.70;;;10.60;97.20;;;;;;6126237;23;20203;-69
2023/03/23 04:34:59;;;;;;;0.80;0.73;;;10.70;97.10;;;;;;6126318;23;20596;-68
2023/03/23 04:37:28;;;;;;;0.70;0.70;;;10.70;97.00;;;;;;6126139;23;20398;-68
2023/03/23 04:40:00;;;;;;;0.90;0.90;;;10.70;97.20;;;;;;6126248;23;20148;-68
2023/03/23 04:42:30;;;;;;;0.30;0.30;;;10.80;96.90;;;;;;6126085;23;20219;-68
2023/03/23 04:44:57;;;;;;;0.40;0.40;;;10.70;96.70;;;;;;6126299;23;20140;-69
2023/03/23 04:47:23;;;;;;;0.77;0.77;;;10.70;96.70;;;;;;6126224;23;20172;-68
2023/03/23 04:49:48;;;;;;;1.35;0.90;;;10.80;96.90;;;;;;6126255;23;20595;-69
2023/03/23 04:52:14;;;;;;;0.87;0.70;;;10.80;96.80;;;;;;6125909;23;20176;-69
2023/03/23 04:54:40;;;;;;;0.80;0.60;;;10.80;96.90;;;;;;6100316;23;20152;-69
2023/03/23 04:57:08;;;;;;;0.50;0.50;;;10.80;96.90;;;;;;6126132;23;20144;-69
2023/03/23 04:59:34;;;;;;;2.15;2.05;;;10.80;96.80;;;;;;6126144;23;20200;-68
2023/03/23 05:01:59;;;;;;;0.40;0.40;;;10.80;96.90;;;;;;6126017;23;20149;-68
2023/03/23 05:04:25;;;;;;;0.43;0.43;;;10.80;96.70;;;;;;6126153;23;20376;-68
2023/03/23 05:06:53;;;;;;;0.30;0.30;;;10.70;96.40;;;;;;6125999;23;20161;-67
2023/03/23 05:09:20;;;;;;;0.50;0.50;;;10.80;96.60;;;;;;6126203;23;20156;-69
2023/03/23 05:11:45;;;;;;;0.70;0.70;;;10.80;96.70;;;;;;6100001;23;20180;-67
2023/03/23 05:14:11;;;;;;;0.47;0.47;;;10.90;96.50;;;;;;6126139;23;20148;-68
2023/03/23 05:16:37;;;;;;;0.70;0.70;;;10.90;96.50;;;;;;6126293;23;20148;-68
2023/03/23 05:19:04;;;;;;;0.80;0.60;;;10.90;96.70;;;;;;6126505;23;20164;-67
2023/03/23 05:21:30;;;;;;;3.00;2.28;;;10.90;96.80;;;;;;6101678;23;20160;-68
2023/03/23 05:23:56;;;;;;;0.55;0.55;;;10.80;97.00;;;;;;6127593;23;20145;-68
2023/03/23 05:26:23;;;;;;;0.40;0.40;;;10.80;97.10;;;;;;6128222;23;20602;-68
2023/03/23 05:28:52;;;;;;;0.40;0.40;;;10.80;97.10;;;;;;6128046;23;20179;-68
2023/03/23 05:31:18;;;;;;;0.40;0.40;;;10.80;97.10;;;;;;6127766;23;20153;-68
2023/03/23 05:33:44;;;;;;;1.95;0.80;;;10.70;97.10;;;;;;6127540;23;20175;-68
2023/03/23 05:36:10;;;;;;;0.90;0.90;;;10.80;97.10;;;;;;6127717;23;20231;-68
2023/03/23 05:38:38;;;;;;;0.40;0.40;;;10.80;96.80;;;;;;6127708;23;20164;-68
2023/03/23 05:41:04;;;;;;;2.67;0.57;;;10.80;96.60;;;;;;6127815;23;20203;-68
2023/03/23 05:43:29;;;;;;;0.30;0.30;;;10.90;96.40;;;;;;6127484;23;20587;-69
2023/03/23 05:45:55;;;;;;;0.40;0.40;;;11.00;96.60;;;;;;6127779;23;20223;-68
2023/03/23 05:48:21;;;;;;;0.50;0.50;;;11.00;96.20;;;;;;6127630;23;20174;-68
2023/03/23 05:50:47;;;;;;;0.30;0.30;;;11.10;95.10;;;;;;6127983;23;20149;-69
2023/03/23 05:53:13;;;;;;;2.38;1.15;;;11.10;95.90;;;;;;6127292;23;20553;-68
2023/03/23 05:55:38;;;;;;;0.60;0.60;;;11.10;94.90;;;;;;6127537;23;20152;-68
2023/03/23 05:58:04;;;;;;;0.50;0.40;;;11.30;93.90;;;;;;6127554;23;20164;-68
2023/03/23 06:00:30;;;;;;;0.60;0.60;;;11.40;93.60;;;;;;6127581;23;20175;-69
2023/03/23 06:02:57;;;;;;;0.50;0.50;;;11.60;92.90;;;;;;6127251;23;20149;-68
2023/03/23 06:05:23;;;;;;;0.50;0.50;;;11.80;92.50;;;;;;6127656;23;20738;-67
2023/03/23 06:07:49;;;;;;;1.33;1.23;;;11.90;91.40;;;;;;6127613;23;20168;-68
2023/03/23 06:10:16;;;;;;;0.40;0.40;;;12.10;91.40;;;;;;6127514;23;20395;-68
2023/03/23 06:12:42;;;;;;;0.50;0.50;;;12.30;91.40;;;;;;6127106;23;20218;-68
2023/03/23 06:15:08;;;;;;;0.80;0.80;;;12.60;90.80;;;;;;6127374;23;20858;-68
2023/03/23 06:17:36;;;;;;;0.40;0.40;;;12.90;91.60;;;;;;6127135;23;20469;-68
2023/03/23 06:20:04;;;;;;;1.00;1.00;;;13.30;90.50;;;;;;6127738;23;20368;-69
2023/03/23 06:22:30;;;;;;;0.30;0.30;;;13.80;89.60;;;;;;6126972;23;20725;-69
2023/03/23 06:24:58;;;;;;;0.77;0.77;;;14.20;87.00;;;;;;6127412;23;20391;-68
2023/03/23 06:27:24;;;;;;;2.33;0.80;;;14.50;84.50;;;;;;6127081;23;20177;-68
2023/03/23 06:29:50;;;;;;;0.40;0.40;;;14.70;83.10;;;;;;6127366;23;20415;-68
2023/03/23 06:32:15;;;;;;;0.30;0.30;;;14.90;83.30;;;;;;6126861;23;20176;-68
2023/03/23 06:34:44;;;;;;;0.60;0.60;;;15.10;83.10;;;;;;6127390;23;20440;-68
2023/03/23 06:37:11;;;;;;;0.40;0.40;;;15.10;78.60;;;;;;6127062;23;20250;-68
2023/03/23 06:39:38;;;;;;;0.60;0.50;;;14.90;80.40;;;;;;6127224;23;20369;-69
2023/03/23 06:42:05;;;;;;;0.47;0.47;;;14.90;80.50;;;;;;6126864;23;20380;-69
2023/03/23 06:44:30;;;;;;;0.70;0.70;;;14.80;82.50;;;;;;6101002;23;20468;-68
2023/03/23 06:46:56;;;;;;;1.47;1.37;;;14.70;81.70;;;;;;6127236;23;20821;-68
2023/03/23 06:49:22;;;;;;;0.77;0.70;;;14.70;80.90;;;;;;6127067;23;20204;-69
2023/03/23 06:51:48;;;;;;;0.60;0.60;;;14.70;82.40;;;;;;6126758;23;20227;-68
2023/03/23 06:54:14;;;;;;;0.80;0.53;;;14.60;81.70;;;;;;6127258;23;20411;-68
2023/03/23 06:56:40;;;;;;;0.60;0.60;;;14.50;83.80;;;;;;6127005;23;20184;-68
2023/03/23 06:59:05;;;;;;;0.60;0.60;;;14.40;81.60;;;;;;6126797;23;20399;-68
2023/03/23 07:01:31;;;;;;;0.40;0.40;;;14.40;81.50;;;;;;6127170;23;20714;-69
2023/03/23 07:03:57;;;;;;;0.60;0.60;;;14.40;81.00;;;;;;6126755;23;20152;-69
2023/03/23 07:06:24;;;;;;;0.93;0.63;;;14.50;81.70;;;;;;6126624;23;20204;-69
2023/03/23 07:08:50;;;;;;;0.50;0.50;;;14.50;79.90;;;;;;6126663;23;20392;-69
2023/03/23 07:11:15;;;;;;;0.50;0.50;;;14.60;80.20;;;;;;6126797;23;20385;-69
2023/03/23 07:13:41;;;;;;;1.07;0.77;;;14.60;80.10;;;;;;6126635;23;20145;-69
2023/03/23 07:16:07;;;;;;;0.43;0.43;;;14.50;80.00;;;;;;6126839;23;20215;-68
2023/03/23 07:18:33;;;;;;;0.60;0.50;;;14.40;80.30;;;;;;6100705;23;20497;-69
2023/03/23 07:20:59;;;;;;;0.70;0.70;;;14.40;85.10;;;;;;6126730;23;20368;-69
2023/03/23 07:23:25;;;;;;;0.83;0.83;;;14.20;85.10;;;;;;6126475;23;20394;-68
2023/03/23 07:25:51;;;;;;;0.40;0.40;;;14.20;84.90;;;;;;6126686;23;20399;-69
2023/03/23 07:28:18;;;;;;;0.47;0.47;;;14.20;83.00;;;;;;6126492;23;20179;-69
2023/03/23 07:30:44;;;;;;;0.97;0.87;;;14.20;83.40;;;;;;6126660;23;20506;-69
2023/03/23 07:33:10;;;;;;;0.50;0.50;;;14.20;82.60;;;;;;6100410;23;20935;-69
2023/03/23 07:35:36;;;;;;;0.40;0.40;;;14.30;82.00;;;;;;6126785;23;20383;-69
2023/03/23 07:38:03;;;;;;;0.73;0.60;;;14.30;82.00;;;;;;6126487;23;20184;-68
2023/03/23 07:40:33;;;;;;;0.40;0.40;;;14.30;81.30;;;;;;6126595;23;20372;-69
2023/03/23 07:42:59;;;;;;;1.33;0.70;;;14.40;81.80;;;;;;6126234;23;20377;-68
2023/03/23 07:45:25;;;;;;;0.90;0.90;;;14.40;81.60;;;;;;6126721;23;20699;-68
2023/03/23 07:47:51;;;;;;;0.60;0.60;;;14.50;81.30;;;;;;6126704;23;20392;-67
2023/03/23 07:50:17;;;;;;;0.70;0.60;;;14.70;81.20;;;;;;6126832;23;20377;-69
2023/03/23 07:52:43;;;;;;;0.30;0.30;;;14.90;80.00;;;;;;6126320;23;20408;-69
2023/03/23 07:55:17;;;;;;;0.90;0.90;;;15.20;78.80;;;;;;6126439;23;20766;-68
2023/03/23 07:57:43;;;;;;;0.50;0.50;;;15.50;77.80;;;;;;6126478;23;20196;-69
2023/03/23 08:00:12;;;;;;;0.40;0.40;;;15.70;76.70;;;;;;6126686;23;20371;-69
2023/03/23 08:02:38;;;;;;;1.90;0.73;;;15.80;76.30;;;;;;6126307;23;20434;-68
2023/03/23 08:05:04;;;;;;;0.40;0.40;;;15.90;75.80;;;;;;6126414;23;20454;-69
2023/03/23 08:07:30;;;;;;;0.77;0.73;;;15.80;75.70;;;;;;6126446;23;20821;-69
2023/03/23 08:09:56;;;;;;;0.60;0.60;;;16.10;75.60;;;;;;6126388;23;20380;-69
2023/03/23 08:12:21;;;;;;;0.50;0.50;;;16.40;75.60;;;;;;6126156;23;20200;-69
2023/03/23 08:14:48;;;;;;;0.40;0.40;;;16.60;73.10;;;;;;6126389;23;20148;-69
2023/03/23 08:17:14;;;;;;;0.43;0.43;;;16.50;72.30;;;;;;6100384;23;20175;-69
2023/03/23 08:19:40;;;;;;;0.77;0.53;;;16.50;72.70;;;;;;6100345;23;20388;-69
2023/03/23 08:22:06;;;;;;;0.40;0.40;;;16.60;72.00;;;;;;6126071;23;20392;-68
2023/03/23 08:24:32;;;;;;;0.40;0.40;;;16.60;73.30;;;;;;6126353;23;20548;-69
2023/03/23 08:26:59;;;;;;;0.77;0.50;;;16.60;74.90;;;;;;6126285;23;20891;-69
2023/03/23 08:29:24;;;;;;;0.63;0.63;;;16.40;75.00;;;;;;6126335;23;20371;-68
2023/03/23 08:31:50;;;;;;;0.67;0.67;;;16.30;74.90;;;;;;6126030;23;20412;-68
2023/03/23 08:34:16;;;;;;;0.80;0.70;;;15.70;75.30;;;;;;6126296;23;20147;-68
2023/03/23 08:36:43;;;;;;;0.53;0.53;;;16.00;77.80;;;;;;6126304;23;20377;-69
2023/03/23 08:39:09;;;;;;;0.60;0.60;;;16.50;77.80;;;;;;6126226;23;20164;-69
2023/03/23 08:41:35;;;;;;;0.57;0.57;;;16.90;76.60;;;;;;6126515;23;20379;-68
2023/03/23 08:44:01;;;;;;;0.53;0.53;;;16.90;76.40;;;;;;6126046;23;20372;-69
2023/03/23 08:46:27;;;;;;;0.50;0.50;;;16.80;77.10;;;;;;6126262;23;20391;-68
2023/03/23 08:48:54;;;;;;;0.50;0.50;;;16.50;77.60;;;;;;6126061;23;20505;-69
2023/03/23 08:51:20;;;;;;;0.80;0.53;;;16.30;79.00;;;;;;6126140;23;20383;-69
2023/03/23 08:53:45;;;;;;;0.50;0.50;;;16.30;79.70;;;;;;6126312;23;20434;-69
2023/03/23 08:56:12;;;;;;;0.73;0.50;;;16.40;81.30;;;;;;6128091;23;20374;-69
2023/03/23 08:58:38;;;;;;;0.50;0.50;;;16.60;80.80;;;;;;6128063;23;20168;-69
2023/03/23 09:01:06;;;;;;;0.40;0.40;;;16.90;79.80;;;;;;6128095;23;20447;-69
2023/03/23 09:03:32;;;;;;;0.40;0.40;;;17.20;78.40;;;;;;6128017;23;20410;-68
2023/03/23 09:06:00;;;;;;;0.40;0.40;;;17.40;75.90;;;;;;6128068;23;20781;-69
2023/03/23 09:08:28;;;;;;;0.40;0.40;;;17.50;76.20;;;;;;6127948;23;20396;-68
2023/03/23 09:10:55;;;;;;;0.90;0.90;;;17.70;76.90;;;;;;6128201;23;20377;-68
2023/03/23 09:13:20;;;;;;;0.70;0.50;;;18.60;75.40;;;;;;6127673;23;20739;-69
2023/03/23 09:15:47;;;;;;;0.40;0.40;;;19.40;72.90;;;;;;6128429;23;20391;-69
2023/03/23 09:18:13;;;;;;;0.97;0.70;;;19.50;68.70;;;;;;6127929;23;20196;-69
2023/03/23 09:20:38;;;;;;;0.60;0.60;;;18.70;68.80;;;;;;6127826;23;20834;-69
2023/03/23 09:23:05;;;;;;;0.40;0.40;;;18.10;74.60;;;;;;6127529;23;20164;-68
2023/03/23 09:25:31;;;;;;;0.40;0.40;;;17.20;72.60;;;;;;6127928;23;20159;-69
2023/03/23 09:27:58;;;;;;;0.30;0.30;;;17.00;75.20;;;;;;6127781;23;20768;-68
2023/03/23 09:30:26;;;;;;;0.50;0.50;;;17.00;75.00;;;;;;6127761;23;20375;-69
2023/03/23 09:32:53;;;;;;;0.80;0.60;;;17.00;76.60;;;;;;6127604;23;20712;-69
2023/03/23 09:35:22;;;;;;;0.30;0.30;;;17.10;75.90;;;;;;6127733;23;20372;-69
2023/03/23 09:37:50;;;;;;;0.40;0.40;;;17.20;74.30;;;;;;6127711;23;20390;-68
2023/03/23 09:40:22;;;;;;;0.40;0.40;;;17.40;74.80;;;;;;6127738;23;20839;-69
2023/03/23 09:43:17;;;;;;;1.03;0.67;;;17.60;73.20;;;;;;6127542;23;20436;-68
2023/03/23 09:46:04;;;;;;;0.30;0.30;;;17.60;71.60;;;;;;6127743;23;20465;-69
2023/03/23 09:48:51;;;;;;;0.80;0.80;;;17.60;72.40;;;;;;6127878;23;20783;-69
2023/03/23 09:51:36;;;;;;;0.53;0.53;;;17.50;70.60;;;;;;6127546;23;20357;-69
2023/03/23 09:54:17;;;;;;;0.30;0.30;;;17.70;74.00;;;;;;6127981;23;20364;-69
2023/03/23 09:56:44;;;;;;;0.80;0.80;;;17.90;71.50;;;;;;6127654;23;20365;-69
2023/03/23 09:59:26;;;;;;;0.40;0.40;;;18.30;70.40;;;;;;6127489;23;20705;-70
2023/03/23 10:01:58;;;;;;;4.20;0.60;;;19.00;70.10;;;;;;6127677;23;20738;-71
2023/03/23 10:04:35;;;;;;;0.40;0.40;;;19.50;67.70;;;;;;6127509;23;20364;-73
2023/03/23 10:07:26;;;;;;;1.77;0.50;;;19.80;66.20;;;;;;6127732;23;20422;-70
2023/03/23 10:09:57;;;;;;;0.40;0.40;;;20.00;65.20;;;;;;6111227;23;20384;-71
2023/03/23 10:12:51;;;;;;;0.47;0.47;;;20.00;65.40;;;;;;6127207;23;20407;-69
2023/03/23 10:15:36;;;;;;;0.60;0.60;;;19.70;65.50;;;;;;6127939;23;20379;-69
2023/03/23 10:18:09;;;;;;;0.73;0.73;;;19.30;64.80;;;;;;6101343;23;20907;-68
2023/03/23 10:20:40;;;;;;;0.73;0.50;;;18.50;64.80;;;;;;6127481;23;20354;-68
2023/03/23 10:23:12;;;;;;;0.40;0.40;;;18.20;67.00;;;;;;6126981;23;20391;-68
2023/03/23 10:25:42;;;;;;;0.57;0.57;;;18.10;67.60;;;;;;6127268;23;20773;-69
2023/03/23 10:28:16;;;;;;;0.40;0.40;;;18.00;68.70;;;;;;6127250;23;20391;-68
2023/03/23 10:30:46;;;;;;;0.43;0.43;;;18.00;68.80;;;;;;6127456;23;20727;-68
2023/03/23 10:33:37;;;;;;;0.47;0.47;;;18.00;68.50;;;;;;6127130;23;20443;-69
2023/03/23 10:36:38;;;;;;;0.50;0.50;;;18.00;69.70;;;;;;6127210;23;20360;-68
2023/03/23 10:39:18;;;;;;;0.57;0.50;;;17.80;67.10;;;;;;6101074;23;20408;-69
2023/03/23 10:41:44;;;;;;;0.70;0.70;;;17.80;67.10;;;;;;6127011;23;20366;-69
2023/03/23 10:44:16;;;;;;;1.37;0.80;;;17.90;68.10;;;;;;6127031;23;20918;-68
2023/03/23 10:46:53;;;;;;;0.50;0.50;;;17.90;66.70;;;;;;6127704;23;20142;-68
2023/03/23 10:49:36;;;;;;;0.40;0.40;;;18.00;67.80;;;;;;6127342;23;20361;-69
2023/03/23 10:52:34;;;;;;;1.33;1.17;;;18.00;65.30;;;;;;6126938;23;20401;-68
2023/03/23 10:55:11;;;;;;;0.40;0.40;;;18.00;65.50;;;;;;6127321;23;20372;-69
2023/03/23 10:57:40;;;;;;;0.30;0.30;;;18.00;67.30;;;;;;6127191;23;20380;-68
2023/03/23 11:00:08;;;;;;;0.40;0.40;;;18.00;64.90;;;;;;6127153;23;20368;-69
2023/03/23 11:02:56;;;;;;;0.40;0.40;;;18.10;66.20;;;;;;6100752;23;20476;-68
2023/03/23 11:05:26;;;;;;;0.50;0.50;;;18.00;65.40;;;;;;6126968;23;20357;-69
2023/03/23 11:07:57;;;;;;;0.97;0.97;;;17.80;65.90;;;;;;6126884;23;20383;-69
2023/03/23 11:10:27;;;;;;;0.93;0.90;;;17.60;66.00;;;;;;6126820;23;20859;-68
2023/03/23 11:12:57;;;;;;;0.50;0.50;;;17.30;66.80;;;;;;6126347;23;21071;-69
2023/03/23 11:15:25;;;;;;;0.30;0.30;;;17.10;67.30;;;;;;6126888;23;20747;-68
2023/03/23 11:18:04;;;;;;;0.87;0.67;;;16.90;70.50;;;;;;6126462;23;20443;-69
2023/03/23 11:20:36;;;;;;;0.50;0.40;;;17.10;69.50;;;;;;6127090;23;20366;-68
2023/03/23 11:23:20;;;;;;;0.53;0.53;;;17.40;66.90;;;;;;6126549;23;20439;-68
2023/03/23 11:26:20;;;;;;;0.40;0.40;;;17.70;66.70;;;;;;6100446;23;20867;-69
2023/03/23 11:29:11;;;;;;;0.70;0.70;;;18.10;65.70;;;;;;6127128;23;20402;-69
2023/03/23 11:31:44;;;;;;;0.50;0.50;;;18.20;65.30;;;;;;6126439;23;20408;-68
2023/03/23 11:34:18;;;;;;;3.03;0.90;;;18.20;63.70;;;;;;6126656;23;20360;-69
2023/03/23 11:37:23;;;;;;;10.57;1.03;;;18.40;62.50;;;;;;6126693;23;20385;-69
2023/03/23 11:39:58;;;;;;;0.63;0.60;;;18.40;63.30;;;;;;6120764;23;20462;-69
2023/03/23 11:42:36;;;;;;;0.40;0.40;;;18.10;63.00;;;;;;6126210;23;20787;-68
2023/03/23 11:45:35;;;;;;;0.53;0.53;;;18.30;63.20;;;;;;6126514;23;20353;-68
2023/03/23 11:48:06;;;;;;;0.90;0.90;;;18.50;62.90;;;;;;6126526;23;20390;-69
2023/03/23 11:50:43;;;;;;;1.57;0.90;;;18.40;61.90;;;;;;6126631;23;20382;-69
2023/03/23 11:53:09;;;;;;;0.40;0.40;;;18.50;63.00;;;;;;6126232;23;20404;-69
2023/03/23 11:55:55;;;;;;;0.40;0.40;;;18.50;61.90;;;;;;6126502;23;20403;-69
2023/03/23 11:58:22;;;;;;;0.40;0.40;;;18.20;62.30;;;;;;6125486;23;20178;-69
2023/03/23 12:01:28;;;;;;;0.30;0.30;;;18.00;64.60;;;;;;6126483;23;20405;-69
2023/03/23 12:04:23;;;;;;;0.40;0.40;;;17.80;70.10;;;;;;6126292;23;20371;-68
2023/03/23 12:07:31;;;;;;;0.90;0.40;;;17.50;75.10;;;;;;6126619;23;20363;-69
2023/03/23 12:09:59;;;;;;;0.63;0.63;;;17.40;77.10;;;;;;6107126;23;20755;-68
2023/03/23 12:13:17;;;;;;;1.27;0.70;;;17.20;78.70;;;;;;6126062;23;20428;-68
2023/03/23 12:16:11;;;;;;;0.40;0.40;;;17.00;85.60;;;;;;5980937;24;20395;-69
2023/03/23 12:18:45;;;;;;;0.53;0.53;;;17.10;84.20;;;;;;6123689;23;20392;-69
2023/03/23 12:21:19;;;;;;;0.30;0.30;;;17.30;81.50;;;;;;6126386;23;20412;-69
2023/03/23 12:24:09;;;;;;;0.40;0.40;;;17.50;83.50;;;;;;6126252;23;20410;-68
2023/03/23 12:26:41;;;;;;;0.77;0.77;;;17.90;81.70;;;;;;6126347;23;20408;-69
2023/03/23 12:29:30;;;;;;;0.50;0.50;;;18.10;83.00;;;;;;6127951;23;20386;-69
2023/03/23 12:32:20;;;;;;;0.40;0.40;;;18.10;79.10;;;;;;6128137;23;20411;-69
2023/03/23 12:34:54;;;;;;;0.50;0.40;;;18.00;80.90;;;;;;6128288;23;20744;-68
2023/03/23 12:37:38;;;;;;;0.77;0.77;;;18.00;78.40;;;;;;6128816;23;20382;-69
2023/03/23 12:40:27;;;;;;;0.53;0.53;;;17.90;76.80;;;;;;6128351;23;20360;-69
2023/03/23 12:43:12;;;;;;;0.30;0.30;;;17.70;77.00;;;;;;6128201;23;20435;-69
2023/03/23 12:45:41;;;;;;;0.50;0.50;;;17.70;78.60;;;;;;6128710;23;20359;-69
2023/03/23 12:48:18;;;;;;;2.80;0.80;;;17.80;76.70;;;;;;6128379;23;20399;-69
2023/03/23 12:51:11;;;;;;;0.50;0.50;;;17.90;78.00;;;;;;6128339;23;20824;-68
2023/03/23 12:54:01;;;;;;;0.40;0.40;;;18.00;77.60;;;;;;6128027;23;20404;-69
2023/03/23 12:56:35;;;;;;;1.70;1.40;;;18.00;77.90;;;;;;6100921;23;20438;-69
2023/03/23 12:59:10;;;;;;;0.57;0.57;;;17.80;77.50;;;;;;6128204;23;20414;-69
2023/03/23 13:01:51;;;;;;;0.40;0.40;;;17.60;77.80;;;;;;6128153;23;20738;-68
2023/03/23 13:04:29;;;;;;;0.50;0.50;;;17.50;77.40;;;;;;6102088;23;20384;-69
2023/03/23 13:06:57;;;;;;;0.40;0.40;;;17.50;77.40;;;;;;6128205;23;20357;-69
2023/03/23 13:09:41;;;;;;;0.63;0.63;;;17.50;77.50;;;;;;6128078;23;20866;-68
2023/03/23 13:12:10;;;;;;;0.50;0.50;;;17.50;79.80;;;;;;6127720;23;20395;-69